sensor_id;sensor_type;location;lat;lon;timestamp;P1;durP1;ratioP1;P2;durP2;ratioP2
65715;SDS011;63484;52.054;8.518;2023-03-21T00:04:22;17.88;;;6.65;;
65715;SDS011;63484;52.054;8.518;2023-03-21T00:09:25;19.10;;;6.80;;
65715;SDS011;63484;52.054;8.518;2023-03-21T00:14:27;16.45;;;6.70;;
65715;SDS011;63484;52.054;8.518;2023-03-21T00:19:31;14.17;;;6.90;;
65715;SDS011;63484;52.054;8.518;2023-03-21T00:24:37;16.95;;;6.88;;
65715;SDS011;63484;52.054;8.518;2023-03-21T00:29:39;19.05;;;6.78;;
65715;SDS011;63484;52.054;8.518;2023-03-21T00:34:42;28.33;;;7.75;;
65715;SDS011;63484;52.054;8.518;2023-03-21T00:39:46;17.15;;;7.40;;
65715;SDS011;63484;52.054;8.518;2023-03-21T00:44:48;17.70;;;8.13;;
65715;SDS011;63484;52.054;8.518;2023-03-21T00:49:51;17.50;;;8.50;;
65715;SDS011;63484;52.054;8.518;2023-03-21T00:54:52;23.13;;;9.15;;
65715;SDS011;63484;52.054;8.518;2023-03-21T00:59:53;22.92;;;9.00;;
65715;SDS011;63484;52.054;8.518;2023-03-21T01:04:58;22.15;;;9.27;;
65715;SDS011;63484;52.054;8.518;2023-03-21T01:09:59;30.27;;;10.60;;
65715;SDS011;63484;52.054;8.518;2023-03-21T01:15:01;25.25;;;10.00;;
65715;SDS011;63484;52.054;8.518;2023-03-21T01:20:04;23.60;;;9.13;;
65715;SDS011;63484;52.054;8.518;2023-03-21T01:30:10;26.00;;;10.45;;
65715;SDS011;63484;52.054;8.518;2023-03-21T01:35:13;28.77;;;10.57;;
65715;SDS011;63484;52.054;8.518;2023-03-21T01:40:15;24.85;;;11.07;;
65715;SDS011;63484;52.054;8.518;2023-03-21T01:51:06;29.90;;;12.52;;
65715;SDS011;63484;52.054;8.518;2023-03-21T01:56:13;29.50;;;12.43;;
65715;SDS011;63484;52.054;8.518;2023-03-21T02:01:28;28.25;;;11.77;;
65715;SDS011;63484;52.054;8.518;2023-03-21T02:06:34;29.45;;;13.27;;
65715;SDS011;63484;52.054;8.518;2023-03-21T02:11:53;27.83;;;12.30;;
65715;SDS011;63484;52.054;8.518;2023-03-21T02:17:00;30.05;;;12.63;;
65715;SDS011;63484;52.054;8.518;2023-03-21T02:22:25;32.65;;;12.57;;
65715;SDS011;63484;52.054;8.518;2023-03-21T02:32:53;27.60;;;12.15;;
65715;SDS011;63484;52.054;8.518;2023-03-21T02:38:08;30.58;;;12.90;;
65715;SDS011;63484;52.054;8.518;2023-03-21T02:43:18;29.42;;;12.77;;
65715;SDS011;63484;52.054;8.518;2023-03-21T02:48:31;40.88;;;13.23;;
65715;SDS011;63484;52.054;8.518;2023-03-21T02:53:38;35.63;;;13.38;;
65715;SDS011;63484;52.054;8.518;2023-03-21T02:58:42;33.10;;;13.68;;
65715;SDS011;63484;52.054;8.518;2023-03-21T03:03:45;31.33;;;13.60;;
65715;SDS011;63484;52.054;8.518;2023-03-21T03:09:03;34.47;;;12.60;;
65715;SDS011;63484;52.054;8.518;2023-03-21T03:19:44;38.10;;;14.85;;
65715;SDS011;63484;52.054;8.518;2023-03-21T03:25:04;31.48;;;13.95;;
65715;SDS011;63484;52.054;8.518;2023-03-21T03:30:10;35.95;;;14.65;;
65715;SDS011;63484;52.054;8.518;2023-03-21T03:35:15;43.25;;;13.98;;
65715;SDS011;63484;52.054;8.518;2023-03-21T03:40:22;35.55;;;14.45;;
65715;SDS011;63484;52.054;8.518;2023-03-21T03:45:40;41.50;;;15.00;;
65715;SDS011;63484;52.054;8.518;2023-03-21T03:50:49;33.50;;;12.93;;
65715;SDS011;63484;52.054;8.518;2023-03-21T03:56:04;31.67;;;12.55;;
65715;SDS011;63484;52.054;8.518;2023-03-21T04:01:12;33.42;;;12.40;;
65715;SDS011;63484;52.054;8.518;2023-03-21T04:06:14;31.60;;;12.10;;
65715;SDS011;63484;52.054;8.518;2023-03-21T04:11:17;32.30;;;11.23;;
65715;SDS011;63484;52.054;8.518;2023-03-21T04:16:24;25.48;;;10.40;;
65715;SDS011;63484;52.054;8.518;2023-03-21T04:21:25;28.27;;;10.02;;
65715;SDS011;63484;52.054;8.518;2023-03-21T04:26:29;24.95;;;10.88;;
65715;SDS011;63484;52.054;8.518;2023-03-21T04:32:02;23.40;;;10.07;;
65715;SDS011;63484;52.054;8.518;2023-03-21T04:37:05;23.23;;;10.40;;
65715;SDS011;63484;52.054;8.518;2023-03-21T04:42:12;27.30;;;10.60;;
65715;SDS011;63484;52.054;8.518;2023-03-21T04:47:15;30.38;;;9.77;;
65715;SDS011;63484;52.054;8.518;2023-03-21T04:52:20;21.23;;;10.32;;
65715;SDS011;63484;52.054;8.518;2023-03-21T04:57:23;23.30;;;10.13;;
65715;SDS011;63484;52.054;8.518;2023-03-21T05:02:24;26.52;;;10.02;;
65715;SDS011;63484;52.054;8.518;2023-03-21T05:07:26;30.05;;;10.40;;
65715;SDS011;63484;52.054;8.518;2023-03-21T05:12:29;27.38;;;10.20;;
65715;SDS011;63484;52.054;8.518;2023-03-21T05:17:31;27.27;;;10.35;;
65715;SDS011;63484;52.054;8.518;2023-03-21T05:22:32;29.45;;;10.05;;
65715;SDS011;63484;52.054;8.518;2023-03-21T05:27:42;24.77;;;9.88;;
65715;SDS011;63484;52.054;8.518;2023-03-21T05:32:47;23.42;;;9.70;;
65715;SDS011;63484;52.054;8.518;2023-03-21T05:37:50;24.53;;;9.83;;
65715;SDS011;63484;52.054;8.518;2023-03-21T05:42:53;23.40;;;10.35;;
65715;SDS011;63484;52.054;8.518;2023-03-21T05:47:56;22.77;;;10.00;;
65715;SDS011;63484;52.054;8.518;2023-03-21T05:53:02;27.48;;;9.55;;
65715;SDS011;63484;52.054;8.518;2023-03-21T05:58:05;28.38;;;10.30;;
65715;SDS011;63484;52.054;8.518;2023-03-21T06:03:07;22.23;;;10.20;;
65715;SDS011;63484;52.054;8.518;2023-03-21T06:08:20;25.15;;;9.52;;
65715;SDS011;63484;52.054;8.518;2023-03-21T06:13:23;20.75;;;9.68;;
65715;SDS011;63484;52.054;8.518;2023-03-21T06:18:25;25.17;;;10.30;;
65715;SDS011;63484;52.054;8.518;2023-03-21T06:23:34;20.23;;;8.73;;
65715;SDS011;63484;52.054;8.518;2023-03-21T06:28:38;25.33;;;9.55;;
65715;SDS011;63484;52.054;8.518;2023-03-21T06:33:40;21.97;;;9.13;;
65715;SDS011;63484;52.054;8.518;2023-03-21T06:38:42;22.83;;;9.25;;
65715;SDS011;63484;52.054;8.518;2023-03-21T06:43:45;21.38;;;9.27;;
65715;SDS011;63484;52.054;8.518;2023-03-21T06:53:49;20.25;;;9.15;;
65715;SDS011;63484;52.054;8.518;2023-03-21T06:59:02;24.30;;;9.13;;
65715;SDS011;63484;52.054;8.518;2023-03-21T07:04:20;19.00;;;8.63;;
65715;SDS011;63484;52.054;8.518;2023-03-21T07:09:23;22.08;;;8.90;;
65715;SDS011;63484;52.054;8.518;2023-03-21T07:14:30;22.55;;;9.52;;
65715;SDS011;63484;52.054;8.518;2023-03-21T07:19:33;18.08;;;8.52;;
65715;SDS011;63484;52.054;8.518;2023-03-21T07:24:35;21.20;;;8.02;;
65715;SDS011;63484;52.054;8.518;2023-03-21T07:29:38;18.80;;;8.40;;
65715;SDS011;63484;52.054;8.518;2023-03-21T07:34:39;20.00;;;8.33;;
65715;SDS011;63484;52.054;8.518;2023-03-21T07:39:42;20.85;;;8.23;;
65715;SDS011;63484;52.054;8.518;2023-03-21T07:44:45;23.48;;;9.50;;
65715;SDS011;63484;52.054;8.518;2023-03-21T07:49:46;23.10;;;8.10;;
65715;SDS011;63484;52.054;8.518;2023-03-21T07:54:48;20.30;;;8.30;;
65715;SDS011;63484;52.054;8.518;2023-03-21T07:59:50;20.55;;;8.55;;
65715;SDS011;63484;52.054;8.518;2023-03-21T08:04:52;20.77;;;8.38;;
65715;SDS011;63484;52.054;8.518;2023-03-21T08:09:53;20.73;;;8.43;;
65715;SDS011;63484;52.054;8.518;2023-03-21T08:14:56;20.95;;;9.77;;
65715;SDS011;63484;52.054;8.518;2023-03-21T08:19:57;23.20;;;8.75;;
65715;SDS011;63484;52.054;8.518;2023-03-21T08:24:59;20.13;;;8.65;;
65715;SDS011;63484;52.054;8.518;2023-03-21T08:30:02;17.23;;;7.25;;
65715;SDS011;63484;52.054;8.518;2023-03-21T08:35:05;21.27;;;8.05;;
65715;SDS011;63484;52.054;8.518;2023-03-21T08:40:09;21.50;;;8.35;;
65715;SDS011;63484;52.054;8.518;2023-03-21T08:45:15;18.17;;;8.27;;
65715;SDS011;63484;52.054;8.518;2023-03-21T08:50:18;23.73;;;8.23;;
65715;SDS011;63484;52.054;8.518;2023-03-21T08:55:21;21.77;;;8.63;;
65715;SDS011;63484;52.054;8.518;2023-03-21T09:00:24;24.95;;;8.98;;
65715;SDS011;63484;52.054;8.518;2023-03-21T09:05:26;25.13;;;8.90;;
65715;SDS011;63484;52.054;8.518;2023-03-21T09:10:27;25.27;;;9.52;;
65715;SDS011;63484;52.054;8.518;2023-03-21T09:15:30;26.08;;;9.38;;
65715;SDS011;63484;52.054;8.518;2023-03-21T09:20:32;26.63;;;9.48;;
65715;SDS011;63484;52.054;8.518;2023-03-21T09:25:37;23.67;;;9.60;;
65715;SDS011;63484;52.054;8.518;2023-03-21T09:30:40;20.52;;;10.32;;
65715;SDS011;63484;52.054;8.518;2023-03-21T09:35:42;23.20;;;9.55;;
65715;SDS011;63484;52.054;8.518;2023-03-21T09:40:47;23.55;;;10.00;;
65715;SDS011;63484;52.054;8.518;2023-03-21T09:45:59;28.05;;;10.98;;
65715;SDS011;63484;52.054;8.518;2023-03-21T09:51:09;24.95;;;10.70;;
65715;SDS011;63484;52.054;8.518;2023-03-21T09:56:14;19.25;;;9.80;;
65715;SDS011;63484;52.054;8.518;2023-03-21T10:01:18;20.13;;;9.48;;
65715;SDS011;63484;52.054;8.518;2023-03-21T10:06:29;18.75;;;9.57;;
65715;SDS011;63484;52.054;8.518;2023-03-21T10:11:31;21.45;;;9.30;;
65715;SDS011;63484;52.054;8.518;2023-03-21T10:16:41;20.60;;;8.93;;
65715;SDS011;63484;52.054;8.518;2023-03-21T10:21:45;18.38;;;7.85;;
65715;SDS011;63484;52.054;8.518;2023-03-21T10:26:49;17.70;;;7.50;;
65715;SDS011;63484;52.054;8.518;2023-03-21T10:31:53;15.87;;;7.87;;
65715;SDS011;63484;52.054;8.518;2023-03-21T10:36:55;13.65;;;7.03;;
65715;SDS011;63484;52.054;8.518;2023-03-21T10:41:56;16.80;;;7.43;;
65715;SDS011;63484;52.054;8.518;2023-03-21T10:47:03;19.33;;;7.60;;
65715;SDS011;63484;52.054;8.518;2023-03-21T10:52:07;15.07;;;7.53;;
65715;SDS011;63484;52.054;8.518;2023-03-21T10:57:19;14.32;;;7.57;;
65715;SDS011;63484;52.054;8.518;2023-03-21T11:02:24;15.73;;;7.28;;
65715;SDS011;63484;52.054;8.518;2023-03-21T11:07:30;14.68;;;7.47;;
65715;SDS011;63484;52.054;8.518;2023-03-21T11:12:33;14.68;;;7.35;;
65715;SDS011;63484;52.054;8.518;2023-03-21T11:17:38;16.10;;;7.38;;
65715;SDS011;63484;52.054;8.518;2023-03-21T11:22:40;19.25;;;7.57;;
65715;SDS011;63484;52.054;8.518;2023-03-21T11:27:46;17.88;;;7.45;;
65715;SDS011;63484;52.054;8.518;2023-03-21T11:32:52;18.27;;;7.05;;
65715;SDS011;63484;52.054;8.518;2023-03-21T11:37:55;15.70;;;7.45;;
65715;SDS011;63484;52.054;8.518;2023-03-21T11:42:57;16.60;;;7.88;;
65715;SDS011;63484;52.054;8.518;2023-03-21T11:48:04;17.42;;;7.60;;
65715;SDS011;63484;52.054;8.518;2023-03-21T11:53:14;17.90;;;7.97;;
65715;SDS011;63484;52.054;8.518;2023-03-21T11:58:39;16.90;;;6.85;;
65715;SDS011;63484;52.054;8.518;2023-03-21T12:04:03;16.63;;;7.32;;
65715;SDS011;63484;52.054;8.518;2023-03-21T12:09:17;14.35;;;6.90;;
65715;SDS011;63484;52.054;8.518;2023-03-21T12:14:36;18.33;;;7.47;;
65715;SDS011;63484;52.054;8.518;2023-03-21T12:19:55;13.40;;;6.85;;
65715;SDS011;63484;52.054;8.518;2023-03-21T12:25:10;11.75;;;6.88;;
65715;SDS011;63484;52.054;8.518;2023-03-21T12:30:21;16.45;;;7.45;;
65715;SDS011;63484;52.054;8.518;2023-03-21T12:35:33;15.32;;;7.15;;
65715;SDS011;63484;52.054;8.518;2023-03-21T12:40:52;11.95;;;6.97;;
65715;SDS011;63484;52.054;8.518;2023-03-21T12:46:04;16.23;;;6.75;;
65715;SDS011;63484;52.054;8.518;2023-03-21T12:51:13;11.75;;;6.55;;
65715;SDS011;63484;52.054;8.518;2023-03-21T12:56:19;13.90;;;6.10;;
65715;SDS011;63484;52.054;8.518;2023-03-21T13:01:25;11.95;;;6.15;;
65715;SDS011;63484;52.054;8.518;2023-03-21T13:06:30;9.85;;;5.75;;
65715;SDS011;63484;52.054;8.518;2023-03-21T13:11:32;12.95;;;5.80;;
65715;SDS011;63484;52.054;8.518;2023-03-21T13:16:34;11.32;;;5.50;;
65715;SDS011;63484;52.054;8.518;2023-03-21T13:21:43;13.73;;;5.93;;
65715;SDS011;63484;52.054;8.518;2023-03-21T13:26:51;12.18;;;5.00;;
65715;SDS011;63484;52.054;8.518;2023-03-21T13:32:06;9.88;;;4.88;;
65715;SDS011;63484;52.054;8.518;2023-03-21T13:37:16;7.95;;;5.00;;
65715;SDS011;63484;52.054;8.518;2023-03-21T13:42:22;11.38;;;4.50;;
65715;SDS011;63484;52.054;8.518;2023-03-21T13:47:34;7.97;;;4.50;;
65715;SDS011;63484;52.054;8.518;2023-03-21T13:52:41;8.55;;;3.97;;
65715;SDS011;63484;52.054;8.518;2023-03-21T13:57:43;7.30;;;4.65;;
65715;SDS011;63484;52.054;8.518;2023-03-21T14:02:54;8.88;;;3.97;;
65715;SDS011;63484;52.054;8.518;2023-03-21T14:08:00;9.63;;;4.07;;
65715;SDS011;63484;52.054;8.518;2023-03-21T14:13:05;8.82;;;3.55;;
65715;SDS011;63484;52.054;8.518;2023-03-21T14:18:13;15.00;;;3.95;;
65715;SDS011;63484;52.054;8.518;2023-03-21T14:23:16;5.40;;;3.70;;
65715;SDS011;63484;52.054;8.518;2023-03-21T14:28:19;8.77;;;4.13;;
65715;SDS011;63484;52.054;8.518;2023-03-21T14:33:25;7.80;;;3.70;;
65715;SDS011;63484;52.054;8.518;2023-03-21T14:38:32;8.23;;;4.05;;
65715;SDS011;63484;52.054;8.518;2023-03-21T14:43:35;10.38;;;3.70;;
65715;SDS011;63484;52.054;8.518;2023-03-21T14:48:36;7.82;;;3.80;;
65715;SDS011;63484;52.054;8.518;2023-03-21T14:53:40;5.15;;;3.28;;
65715;SDS011;63484;52.054;8.518;2023-03-21T14:58:44;6.93;;;3.92;;
65715;SDS011;63484;52.054;8.518;2023-03-21T15:03:48;7.43;;;3.30;;
65715;SDS011;63484;52.054;8.518;2023-03-21T15:08:56;5.70;;;3.08;;
65715;SDS011;63484;52.054;8.518;2023-03-21T15:14:00;7.28;;;3.40;;
65715;SDS011;63484;52.054;8.518;2023-03-21T15:19:04;5.90;;;3.58;;
65715;SDS011;63484;52.054;8.518;2023-03-21T15:24:08;6.70;;;3.10;;
65715;SDS011;63484;52.054;8.518;2023-03-21T15:29:14;5.65;;;2.75;;
65715;SDS011;63484;52.054;8.518;2023-03-21T15:34:18;4.60;;;2.65;;
65715;SDS011;63484;52.054;8.518;2023-03-21T15:39:23;8.00;;;2.80;;
65715;SDS011;63484;52.054;8.518;2023-03-21T16:20:24;2.72;;;1.52;;
65715;SDS011;63484;52.054;8.518;2023-03-21T16:25:28;2.72;;;1.50;;
65715;SDS011;63484;52.054;8.518;2023-03-21T16:30:36;2.83;;;1.45;;
65715;SDS011;63484;52.054;8.518;2023-03-21T16:36:07;4.93;;;1.80;;
65715;SDS011;63484;52.054;8.518;2023-03-21T16:41:17;4.50;;;2.00;;
65715;SDS011;63484;52.054;8.518;2023-03-21T16:46:24;4.00;;;2.22;;
65715;SDS011;63484;52.054;8.518;2023-03-21T16:51:31;5.38;;;1.90;;
65715;SDS011;63484;52.054;8.518;2023-03-21T16:56:41;3.30;;;2.00;;
65715;SDS011;63484;52.054;8.518;2023-03-21T17:01:44;5.90;;;2.10;;
65715;SDS011;63484;52.054;8.518;2023-03-21T17:12:12;6.10;;;2.22;;
65715;SDS011;63484;52.054;8.518;2023-03-21T17:17:15;5.20;;;1.90;;
65715;SDS011;63484;52.054;8.518;2023-03-21T18:02:31;4.63;;;2.53;;
65715;SDS011;63484;52.054;8.518;2023-03-21T18:12:35;5.18;;;2.40;;
65715;SDS011;63484;52.054;8.518;2023-03-21T18:17:37;5.90;;;2.58;;
65715;SDS011;63484;52.054;8.518;2023-03-21T18:22:39;5.53;;;2.88;;
65715;SDS011;63484;52.054;8.518;2023-03-21T18:27:40;6.32;;;2.65;;
65715;SDS011;63484;52.054;8.518;2023-03-21T18:32:44;5.30;;;2.58;;
65715;SDS011;63484;52.054;8.518;2023-03-21T18:37:46;6.57;;;3.35;;
65715;SDS011;63484;52.054;8.518;2023-03-21T18:42:47;6.05;;;3.22;;
65715;SDS011;63484;52.054;8.518;2023-03-21T18:47:50;5.07;;;2.90;;
65715;SDS011;63484;52.054;8.518;2023-03-21T18:52:52;10.88;;;5.97;;
65715;SDS011;63484;52.054;8.518;2023-03-21T18:57:54;11.52;;;4.53;;
65715;SDS011;63484;52.054;8.518;2023-03-21T19:02:57;9.15;;;4.30;;
65715;SDS011;63484;52.054;8.518;2023-03-21T19:07:59;12.57;;;6.90;;
65715;SDS011;63484;52.054;8.518;2023-03-21T19:13:01;9.07;;;4.65;;
65715;SDS011;63484;52.054;8.518;2023-03-21T19:18:03;16.23;;;6.55;;
65715;SDS011;63484;52.054;8.518;2023-03-21T19:23:05;15.53;;;9.00;;
65715;SDS011;63484;52.054;8.518;2023-03-21T19:28:07;11.50;;;6.28;;
65715;SDS011;63484;52.054;8.518;2023-03-21T19:33:10;10.48;;;6.00;;
65715;SDS011;63484;52.054;8.518;2023-03-21T19:38:11;7.43;;;3.80;;
65715;SDS011;63484;52.054;8.518;2023-03-21T19:43:13;10.07;;;4.60;;
65715;SDS011;63484;52.054;8.518;2023-03-21T19:48:16;25.70;;;12.50;;
65715;SDS011;63484;52.054;8.518;2023-03-21T19:53:18;7.43;;;4.00;;
65715;SDS011;63484;52.054;8.518;2023-03-21T19:58:20;8.27;;;4.53;;
65715;SDS011;63484;52.054;8.518;2023-03-21T20:03:23;7.95;;;4.10;;
65715;SDS011;63484;52.054;8.518;2023-03-21T20:08:25;7.85;;;4.40;;
65715;SDS011;63484;52.054;8.518;2023-03-21T20:13:26;10.93;;;4.40;;
65715;SDS011;63484;52.054;8.518;2023-03-21T20:18:29;10.50;;;4.78;;
65715;SDS011;63484;52.054;8.518;2023-03-21T20:23:32;8.27;;;4.30;;
65715;SDS011;63484;52.054;8.518;2023-03-21T20:28:34;8.30;;;4.22;;
65715;SDS011;63484;52.054;8.518;2023-03-21T20:33:37;9.23;;;4.65;;
65715;SDS011;63484;52.054;8.518;2023-03-21T20:38:39;9.32;;;4.22;;
65715;SDS011;63484;52.054;8.518;2023-03-21T20:43:40;11.55;;;5.28;;
65715;SDS011;63484;52.054;8.518;2023-03-21T20:48:43;10.85;;;4.72;;
65715;SDS011;63484;52.054;8.518;2023-03-21T20:53:47;10.00;;;4.80;;
65715;SDS011;63484;52.054;8.518;2023-03-21T20:58:49;9.85;;;5.20;;
65715;SDS011;63484;52.054;8.518;2023-03-21T21:03:51;7.97;;;4.53;;
65715;SDS011;63484;52.054;8.518;2023-03-21T21:08:55;9.02;;;4.65;;
65715;SDS011;63484;52.054;8.518;2023-03-21T21:14:01;10.65;;;5.03;;
65715;SDS011;63484;52.054;8.518;2023-03-21T21:19:04;7.78;;;5.30;;
65715;SDS011;63484;52.054;8.518;2023-03-21T21:24:05;11.00;;;5.13;;
65715;SDS011;63484;52.054;8.518;2023-03-21T21:29:11;10.15;;;5.50;;
65715;SDS011;63484;52.054;8.518;2023-03-21T21:34:17;11.57;;;5.15;;
65715;SDS011;63484;52.054;8.518;2023-03-21T21:39:18;7.60;;;4.97;;
65715;SDS011;63484;52.054;8.518;2023-03-21T21:44:20;9.93;;;5.10;;
65715;SDS011;63484;52.054;8.518;2023-03-21T21:49:23;8.93;;;4.80;;
65715;SDS011;63484;52.054;8.518;2023-03-21T21:54:25;9.50;;;5.18;;
65715;SDS011;63484;52.054;8.518;2023-03-21T21:59:29;9.00;;;5.28;;
65715;SDS011;63484;52.054;8.518;2023-03-21T22:04:32;8.10;;;4.65;;
65715;SDS011;63484;52.054;8.518;2023-03-21T22:09:33;10.63;;;5.10;;
65715;SDS011;63484;52.054;8.518;2023-03-21T22:14:35;10.05;;;5.57;;
65715;SDS011;63484;52.054;8.518;2023-03-21T22:19:38;10.05;;;5.57;;
65715;SDS011;63484;52.054;8.518;2023-03-21T22:24:40;10.68;;;6.00;;
65715;SDS011;63484;52.054;8.518;2023-03-21T22:29:41;8.88;;;5.15;;
65715;SDS011;63484;52.054;8.518;2023-03-21T22:34:44;8.15;;;4.57;;
65715;SDS011;63484;52.054;8.518;2023-03-21T22:39:46;9.27;;;5.45;;
65715;SDS011;63484;52.054;8.518;2023-03-21T22:44:47;9.82;;;5.15;;
65715;SDS011;63484;52.054;8.518;2023-03-21T22:49:50;12.43;;;7.13;;
65715;SDS011;63484;52.054;8.518;2023-03-21T22:54:52;11.20;;;5.65;;
65715;SDS011;63484;52.054;8.518;2023-03-21T22:59:53;8.88;;;5.20;;
65715;SDS011;63484;52.054;8.518;2023-03-21T23:04:56;9.00;;;5.45;;
65715;SDS011;63484;52.054;8.518;2023-03-21T23:09:58;11.15;;;5.32;;
65715;SDS011;63484;52.054;8.518;2023-03-21T23:14:59;10.00;;;5.20;;
65715;SDS011;63484;52.054;8.518;2023-03-21T23:20:02;7.80;;;4.70;;
65715;SDS011;63484;52.054;8.518;2023-03-21T23:25:06;9.40;;;5.40;;
65715;SDS011;63484;52.054;8.518;2023-03-21T23:30:08;10.73;;;5.38;;
65715;SDS011;63484;52.054;8.518;2023-03-21T23:35:11;11.85;;;5.60;;
65715;SDS011;63484;52.054;8.518;2023-03-21T23:40:12;9.77;;;5.27;;
65715;SDS011;63484;52.054;8.518;2023-03-21T23:45:14;9.82;;;5.18;;
65715;SDS011;63484;52.054;8.518;2023-03-21T23:50:17;9.00;;;4.95;;
65715;SDS011;63484;52.054;8.518;2023-03-21T23:55:18;9.95;;;5.15;;
